Time;durP1;ratioP1;P1;durP2;ratioP2;P2;SDS_P1;SDS_P2;PMS_P1;PMS_P2;Temp;Humidity;BMP_temperature;BMP_pressure;BME280_temperature;BME280_humidity;BME280_pressure;Samples;Min_cycle;Max_cycle;Signal;HPM_P1;HPM_P2
2024/01/24 00:01:36;;;;;;;0.28;0.28;;;10.80;99.90;;;;;;4997940;28;20046;-80
2024/01/24 00:04:03;;;;;;;1.45;0.98;;;10.80;99.90;;;;;;4982981;28;20044;-77
2024/01/24 00:06:32;;;;;;;0.43;0.43;;;10.80;99.90;;;;;;4998789;28;20045;-83
2024/01/24 00:08:58;;;;;;;0.40;0.40;;;10.90;99.90;;;;;;4977566;28;20387;-81
2024/01/24 00:11:24;;;;;;;0.28;0.28;;;10.80;99.90;;;;;;4953498;28;20125;-81
2024/01/24 00:13:49;;;;;;;0.38;0.38;;;10.80;99.90;;;;;;4960805;28;20050;-84
2024/01/24 00:16:15;;;;;;;0.40;0.40;;;10.90;99.90;;;;;;4976866;28;20170;-82
2024/01/24 00:18:41;;;;;;;0.70;0.70;;;10.90;99.90;;;;;;4997664;28;20050;-84
2024/01/24 00:21:08;;;;;;;0.30;0.30;;;10.90;99.90;;;;;;4963481;28;20037;-81
2024/01/24 00:23:33;;;;;;;0.40;0.40;;;10.80;99.90;;;;;;4984984;28;20084;-82
2024/01/24 00:25:59;;;;;;;0.40;0.40;;;10.80;99.90;;;;;;5014661;28;20049;-83
2024/01/24 00:28:26;;;;;;;0.30;0.30;;;10.80;99.90;;;;;;4978044;28;20629;-83
2024/01/24 00:30:55;;;;;;;0.43;0.43;;;10.80;99.90;;;;;;5004267;28;20058;-80
2024/01/24 00:33:22;;;;;;;0.40;0.40;;;10.80;99.90;;;;;;4986223;28;20059;-80
2024/01/24 00:35:48;;;;;;;0.50;0.50;;;10.80;99.90;;;;;;5003514;28;20041;-84
2024/01/24 00:38:15;;;;;;;0.30;0.30;;;10.80;99.90;;;;;;5003577;28;20145;-80
2024/01/24 00:40:41;;;;;;;1.45;0.88;;;10.80;99.90;;;;;;4988517;28;20045;-81
2024/01/24 00:43:08;;;;;;;0.40;0.40;;;10.80;99.90;;;;;;5006650;28;20049;-80
2024/01/24 00:45:33;;;;;;;0.70;0.70;;;10.80;99.90;;;;;;5006710;28;20053;-85
2024/01/24 00:47:59;;;;;;;14.60;0.93;;;10.80;99.90;;;;;;4986139;28;20403;-83
2024/01/24 00:50:25;;;;;;;0.30;0.30;;;10.80;99.90;;;;;;5005924;28;20117;-84
2024/01/24 00:52:53;;;;;;;0.93;0.93;;;10.80;99.90;;;;;;4961036;28;20901;-84
2024/01/24 00:55:19;;;;;;;0.50;0.50;;;10.80;99.90;;;;;;4988032;28;20073;-80
2024/01/24 00:57:44;;;;;;;2.58;1.58;;;10.90;99.90;;;;;;4978556;28;20607;-82
2024/01/24 01:00:11;;;;;;;0.82;0.82;;;10.80;99.90;;;;;;5007678;28;20057;-83
2024/01/24 01:02:37;;;;;;;0.50;0.50;;;10.80;99.90;;;;;;4991859;28;20574;-83
2024/01/24 01:05:04;;;;;;;13.77;1.00;;;10.80;99.90;;;;;;4988602;28;20086;-82
2024/01/24 01:07:30;;;;;;;0.50;0.50;;;10.80;99.90;;;;;;5005093;28;20048;-82
2024/01/24 01:09:56;;;;;;;0.30;0.30;;;10.80;99.90;;;;;;5003761;28;20517;-81
2024/01/24 01:12:22;;;;;;;0.75;0.75;;;10.70;99.90;;;;;;5002163;28;20081;-82
2024/01/24 01:14:48;;;;;;;0.40;0.40;;;10.60;99.90;;;;;;5002268;28;20033;-80
2024/01/24 01:17:13;;;;;;;0.40;0.40;;;10.60;99.90;;;;;;5004962;28;20040;-81
2024/01/24 01:19:39;;;;;;;0.50;0.50;;;10.50;99.90;;;;;;4986346;28;20043;-81
2024/01/24 01:22:05;;;;;;;0.30;0.30;;;10.50;99.90;;;;;;4968267;28;20467;-80
2024/01/24 01:24:30;;;;;;;0.22;0.22;;;10.40;99.90;;;;;;5003265;28;20443;-82
2024/01/24 01:26:56;;;;;;;0.35;0.35;;;10.40;99.90;;;;;;4986546;28;20034;-80
2024/01/24 01:29:22;;;;;;;0.57;0.57;;;10.40;99.90;;;;;;4982358;28;20077;-82
2024/01/24 01:31:47;;;;;;;2.38;2.17;;;10.50;99.90;;;;;;5006550;28;20077;-81
2024/01/24 01:34:13;;;;;;;0.30;0.30;;;10.50;99.90;;;;;;4971631;28;20097;-81
2024/01/24 01:36:39;;;;;;;1.67;1.58;;;10.60;99.90;;;;;;4990032;28;20057;-82
2024/01/24 01:39:04;;;;;;;0.40;0.40;;;10.50;99.90;;;;;;4989792;28;20112;-81
2024/01/24 01:41:30;;;;;;;0.40;0.40;;;10.60;99.90;;;;;;4979791;28;20054;-82
2024/01/24 01:43:57;;;;;;;2.42;1.98;;;10.60;99.90;;;;;;4995022;28;20050;-82
2024/01/24 01:46:25;;;;;;;0.45;0.45;;;10.70;99.90;;;;;;4989938;28;20030;-83
2024/01/24 01:48:52;;;;;;;0.52;0.45;;;10.70;99.90;;;;;;4988961;28;20121;-81
2024/01/24 01:51:19;;;;;;;0.40;0.40;;;10.70;99.90;;;;;;4988695;28;20046;-83
2024/01/24 01:53:45;;;;;;;0.50;0.50;;;10.70;99.90;;;;;;4966139;28;20492;-83
2024/01/24 01:56:12;;;;;;;;;;;10.80;99.90;;;;;;4974581;28;20418;-82
2024/01/24 01:58:40;;;;;;;0.40;0.40;;;10.90;99.90;;;;;;4991029;28;19966;-82
2024/01/24 02:01:06;;;;;;;1.85;1.75;;;10.90;99.90;;;;;;4974392;28;20054;-84
2024/01/24 02:03:32;;;;;;;0.30;0.30;;;11.00;99.90;;;;;;4974513;28;20038;-82
2024/01/24 02:06:00;;;;;;;0.45;0.45;;;11.00;99.90;;;;;;4988459;28;20045;-83
2024/01/24 02:08:27;;;;;;;1.50;1.50;;;11.00;99.90;;;;;;4956586;28;20042;-82
2024/01/24 02:10:53;;;;;;;0.40;0.40;;;11.00;99.90;;;;;;4990769;28;20108;-82
2024/01/24 02:13:19;;;;;;;0.38;0.38;;;11.10;99.90;;;;;;4973889;28;20048;-82
2024/01/24 02:15:45;;;;;;;0.40;0.40;;;11.20;99.90;;;;;;4989071;28;20031;-82
2024/01/24 02:18:14;;;;;;;0.40;0.40;;;11.20;99.90;;;;;;4994004;28;20046;-83
2024/01/24 02:20:41;;;;;;;0.40;0.40;;;11.30;99.90;;;;;;4989854;28;20515;-84
2024/01/24 02:23:11;;;;;;;0.30;0.30;;;11.30;99.90;;;;;;4992608;28;20153;-83
2024/01/24 02:25:37;;;;;;;0.40;0.40;;;11.40;99.90;;;;;;4980174;28;20046;-84
2024/01/24 02:28:03;;;;;;;1.10;1.10;;;11.40;99.90;;;;;;4977959;28;20038;-74
2024/01/24 02:30:30;;;;;;;0.32;0.32;;;11.40;99.90;;;;;;4992711;28;20038;-75
2024/01/24 02:32:59;;;;;;;0.40;0.40;;;11.50;99.90;;;;;;4992428;28;20048;-74
2024/01/24 02:35:27;;;;;;;0.55;0.50;;;11.50;99.90;;;;;;4981008;28;20117;-74
2024/01/24 02:37:53;;;;;;;1.25;1.20;;;11.50;99.90;;;;;;4995553;28;20046;-75
2024/01/24 02:40:18;;;;;;;;;;;11.50;99.90;;;;;;4999405;28;20077;-75
2024/01/24 02:42:44;;;;;;;1.00;0.75;;;11.50;99.90;;;;;;4989988;28;20374;-73
2024/01/24 02:45:10;;;;;;;0.40;0.40;;;11.60;99.90;;;;;;5005130;28;20124;-73
2024/01/24 02:47:36;;;;;;;0.45;0.45;;;11.60;99.90;;;;;;4973531;28;20037;-73
2024/01/24 02:50:03;;;;;;;0.30;0.30;;;11.60;99.90;;;;;;4991928;28;20475;-74
2024/01/24 02:52:29;;;;;;;0.32;0.32;;;11.60;99.90;;;;;;5008270;28;20052;-73
2024/01/24 02:54:55;;;;;;;0.20;0.20;;;11.60;99.90;;;;;;4988939;28;20053;-73
2024/01/24 02:57:21;;;;;;;1.05;1.05;;;11.60;99.90;;;;;;5007591;28;20046;-74
2024/01/24 02:59:47;;;;;;;0.47;0.47;;;11.60;99.90;;;;;;4988996;28;21161;-73
2024/01/24 03:02:12;;;;;;;0.38;0.38;;;11.60;99.90;;;;;;5006400;28;20069;-74
2024/01/24 03:04:44;;;;;;;0.25;0.25;;;11.60;99.90;;;;;;5006786;28;20056;-74
2024/01/24 03:07:09;;;;;;;0.30;0.30;;;11.50;99.90;;;;;;4992125;28;20483;-74
2024/01/24 03:09:35;;;;;;;1.50;0.85;;;11.60;99.90;;;;;;4978635;28;20045;-74
2024/01/24 03:12:01;;;;;;;0.50;0.50;;;11.50;99.90;;;;;;5004978;28;20037;-74
2024/01/24 03:14:27;;;;;;;;;;;11.40;99.90;;;;;;4992955;28;20107;-75
2024/01/24 03:16:52;;;;;;;0.22;0.22;;;11.40;99.90;;;;;;5007960;28;20124;-74
2024/01/24 03:19:18;;;;;;;0.60;0.60;;;11.30;99.90;;;;;;4991915;28;20038;-74
2024/01/24 03:21:44;;;;;;;0.30;0.30;;;11.30;99.90;;;;;;5005743;28;20512;-74
2024/01/24 03:24:09;;;;;;;0.30;0.30;;;11.30;99.90;;;;;;5006668;28;20046;-73
2024/01/24 03:26:35;;;;;;;5.00;0.73;;;11.20;99.90;;;;;;4987418;28;20041;-74
2024/01/24 03:29:02;;;;;;;0.68;0.68;;;11.20;99.90;;;;;;5009885;28;20125;-75
2024/01/24 03:31:29;;;;;;;0.30;0.30;;;11.20;99.90;;;;;;4989105;28;20045;-74
2024/01/24 03:33:57;;;;;;;0.32;0.32;;;11.10;99.90;;;;;;5009285;28;21167;-74
2024/01/24 03:36:23;;;;;;;0.50;0.50;;;11.00;99.90;;;;;;4988855;28;20518;-74
2024/01/24 03:38:49;;;;;;;0.30;0.30;;;11.00;99.90;;;;;;4991452;28;20046;-74
2024/01/24 03:41:15;;;;;;;;;;;11.00;99.90;;;;;;5006661;28;20054;-74
2024/01/24 03:43:41;;;;;;;0.50;0.50;;;10.90;99.90;;;;;;5009777;28;19922;-74
2024/01/24 03:46:08;;;;;;;1.30;0.85;;;10.90;99.90;;;;;;4986390;28;20038;-75
2024/01/24 03:48:34;;;;;;;0.77;0.77;;;10.90;99.90;;;;;;5004535;28;20045;-75
2024/01/24 03:51:00;;;;;;;0.30;0.30;;;11.00;99.90;;;;;;5022144;28;20037;-75
2024/01/24 03:53:25;;;;;;;1.05;1.05;;;11.00;99.90;;;;;;4992661;28;20038;-74
2024/01/24 03:55:51;;;;;;;0.43;0.43;;;11.00;99.90;;;;;;4989690;28;20037;-74
2024/01/24 03:58:21;;;;;;;2.58;0.43;;;11.00;99.90;;;;;;5009509;28;20179;-74
2024/01/24 04:00:52;;;;;;;0.93;0.93;;;11.10;99.90;;;;;;5007678;28;20527;-74
2024/01/24 04:03:18;;;;;;;0.40;0.40;;;11.10;99.90;;;;;;5007032;28;20053;-74
2024/01/24 04:05:43;;;;;;;;;;;11.10;99.90;;;;;;5005636;28;20144;-74
2024/01/24 04:08:09;;;;;;;0.60;0.60;;;11.10;99.90;;;;;;4996476;28;20020;-73
2024/01/24 04:10:35;;;;;;;3.53;3.22;;;11.10;99.90;;;;;;5008257;28;20042;-74
2024/01/24 04:13:01;;;;;;;0.47;0.47;;;11.00;99.90;;;;;;4985965;28;20053;-73
2024/01/24 04:15:30;;;;;;;0.32;0.32;;;11.00;99.90;;;;;;5006978;28;20057;-73
2024/01/24 04:17:57;;;;;;;0.50;0.50;;;11.00;99.90;;;;;;4987414;28;20034;-74
2024/01/24 04:20:23;;;;;;;2.67;0.60;;;11.00;99.90;;;;;;5004219;28;20521;-74
2024/01/24 04:22:48;;;;;;;0.32;0.32;;;10.90;99.90;;;;;;4988511;28;20046;-73
2024/01/24 04:25:14;;;;;;;0.30;0.30;;;10.80;99.90;;;;;;4991572;28;20081;-74
2024/01/24 04:27:40;;;;;;;0.70;0.70;;;10.80;99.90;;;;;;4990756;28;20124;-74
2024/01/24 04:30:12;;;;;;;2.45;2.22;;;10.70;99.90;;;;;;5010090;28;20038;-74
2024/01/24 04:32:38;;;;;;;0.30;0.30;;;10.70;99.90;;;;;;5004211;28;20518;-73
2024/01/24 04:35:04;;;;;;;0.35;0.35;;;10.70;99.90;;;;;;4975664;28;20172;-73
2024/01/24 04:37:30;;;;;;;0.57;0.57;;;10.80;99.90;;;;;;5006903;28;20076;-74
2024/01/24 04:39:55;;;;;;;0.93;0.90;;;10.70;99.90;;;;;;5004468;28;20085;-74
2024/01/24 04:42:21;;;;;;;1.20;1.20;;;10.70;99.90;;;;;;5010554;28;20068;-75
2024/01/24 04:44:47;;;;;;;0.70;0.70;;;10.70;99.90;;;;;;5010189;28;20029;-74
2024/01/24 04:47:14;;;;;;;3.00;1.00;;;10.70;99.90;;;;;;5004471;28;20042;-73
2024/01/24 04:49:40;;;;;;;0.30;0.30;;;10.60;99.90;;;;;;4992244;28;20045;-81
2024/01/24 04:52:06;;;;;;;0.40;0.40;;;10.60;99.90;;;;;;4975483;28;20038;-83
2024/01/24 04:54:37;;;;;;;0.30;0.30;;;10.60;99.90;;;;;;4988702;28;20045;-82
2024/01/24 04:57:03;;;;;;;11.77;1.65;;;10.60;99.90;;;;;;4990691;28;20041;-81
2024/01/24 04:59:35;;;;;;;1.38;1.35;;;10.70;99.90;;;;;;5027241;28;20053;-84
2024/01/24 05:02:05;;;;;;;0.30;0.30;;;10.70;99.90;;;;;;5012061;28;20041;-82
2024/01/24 05:04:31;;;;;;;0.30;0.30;;;10.70;99.90;;;;;;5009253;28;20410;-82
2024/01/24 05:06:57;;;;;;;2.22;1.02;;;10.70;99.90;;;;;;5012073;28;20038;-81
2024/01/24 05:09:22;;;;;;;0.50;0.50;;;10.70;99.90;;;;;;4980158;28;20029;-83
2024/01/24 05:11:48;;;;;;;0.40;0.40;;;10.70;99.90;;;;;;4995314;28;20038;-83
2024/01/24 05:14:17;;;;;;;0.93;0.93;;;10.70;99.90;;;;;;5013677;28;20067;-81
2024/01/24 05:16:43;;;;;;;6.15;0.90;;;10.60;99.90;;;;;;4995782;28;20050;-82
2024/01/24 05:19:09;;;;;;;0.30;0.30;;;10.60;99.90;;;;;;4989983;28;20069;-83
2024/01/24 05:21:44;;;;;;;0.50;0.50;;;10.60;99.90;;;;;;5006726;28;20045;-82
2024/01/24 05:24:10;;;;;;;1.50;1.05;;;10.60;99.90;;;;;;5007656;28;20106;-83
2024/01/24 05:26:37;;;;;;;2.13;1.98;;;10.60;99.90;;;;;;4993160;28;20038;-83
2024/01/24 05:29:08;;;;;;;1.02;1.02;;;10.70;99.90;;;;;;5021385;28;20064;-82
2024/01/24 05:31:34;;;;;;;0.60;0.60;;;10.70;99.90;;;;;;4992092;28;20076;-81
2024/01/24 05:34:02;;;;;;;2.85;0.52;;;10.60;99.90;;;;;;4975821;28;20526;-81
2024/01/24 05:36:27;;;;;;;0.60;0.60;;;10.60;99.90;;;;;;5005104;28;20088;-82
2024/01/24 05:38:53;;;;;;;0.80;0.80;;;10.40;99.90;;;;;;4987482;28;20073;-82
2024/01/24 05:41:19;;;;;;;8.10;2.58;;;10.50;99.90;;;;;;5009703;28;20485;-81
2024/01/24 05:43:45;;;;;;;1.17;1.05;;;10.50;99.90;;;;;;4991652;28;20546;-82
2024/01/24 05:46:10;;;;;;;0.40;0.40;;;10.50;99.90;;;;;;4974256;28;20518;-84
2024/01/24 05:48:36;;;;;;;0.63;0.63;;;10.50;99.90;;;;;;4974567;28;20042;-81
2024/01/24 05:51:03;;;;;;;1.83;1.73;;;10.50;99.90;;;;;;5005399;28;20081;-81
2024/01/24 05:53:29;;;;;;;0.55;0.55;;;10.40;99.90;;;;;;5002338;28;20316;-82
2024/01/24 05:55:54;;;;;;;2.35;1.13;;;10.40;99.90;;;;;;4992614;28;20087;-82
2024/01/24 05:58:20;;;;;;;6.80;1.15;;;10.40;99.90;;;;;;4991341;28;20502;-82
2024/01/24 06:00:46;;;;;;;1.38;1.27;;;10.40;99.90;;;;;;4992568;28;20041;-82
2024/01/24 06:03:12;;;;;;;0.55;0.55;;;10.40;99.90;;;;;;4989155;28;20041;-82
2024/01/24 06:05:38;;;;;;;0.40;0.40;;;10.40;99.90;;;;;;5009494;28;20041;-80
2024/01/24 06:08:05;;;;;;;0.73;0.73;;;10.40;99.90;;;;;;5023330;28;20076;-81
2024/01/24 06:10:31;;;;;;;0.30;0.30;;;10.40;99.90;;;;;;4991601;28;20078;-81
2024/01/24 06:12:58;;;;;;;1.25;1.25;;;10.40;99.90;;;;;;4989818;28;20065;-80
2024/01/24 06:15:24;;;;;;;1.30;1.20;;;10.40;99.90;;;;;;5006058;28;20037;-81
2024/01/24 06:17:49;;;;;;;0.47;0.47;;;10.40;99.90;;;;;;4990450;28;20487;-81
2024/01/24 06:20:16;;;;;;;0.50;0.50;;;10.40;99.90;;;;;;4991702;28;20569;-82
2024/01/24 06:22:44;;;;;;;0.80;0.45;;;10.40;99.90;;;;;;5005492;28;20117;-80
2024/01/24 06:25:10;;;;;;;0.98;0.95;;;10.40;99.90;;;;;;5007435;28;20044;-80
2024/01/24 06:27:36;;;;;;;2.45;1.38;;;10.40;99.90;;;;;;5005167;28;20349;-81
2024/01/24 06:30:04;;;;;;;0.45;0.45;;;10.30;99.90;;;;;;5026642;28;20043;-82
2024/01/24 06:32:31;;;;;;;0.93;0.90;;;10.30;99.90;;;;;;5008406;28;20096;-81
2024/01/24 06:34:56;;;;;;;5.05;1.60;;;10.30;99.90;;;;;;5031074;28;20125;-81
2024/01/24 06:37:22;;;;;;;1.33;1.27;;;10.30;99.90;;;;;;4989856;28;20033;-81
2024/01/24 06:39:48;;;;;;;1.55;0.70;;;10.20;99.90;;;;;;5011468;28;20487;-82
2024/01/24 06:42:13;;;;;;;6.25;1.15;;;10.20;99.90;;;;;;5004738;28;20148;-81
2024/01/24 06:44:40;;;;;;;0.50;0.50;;;10.10;99.90;;;;;;4988261;28;20050;-81
2024/01/24 06:47:06;;;;;;;1.15;1.15;;;10.10;99.90;;;;;;5006711;28;20048;-82
2024/01/24 06:49:33;;;;;;;0.88;0.88;;;10.10;99.90;;;;;;4991231;28;20041;-81
2024/01/24 06:51:59;;;;;;;0.60;0.60;;;10.10;99.90;;;;;;5005565;28;20053;-81
2024/01/24 06:54:25;;;;;;;;;;;10.10;99.90;;;;;;4996554;28;20107;-85
2024/01/24 06:56:51;;;;;;;2.50;2.30;;;9.90;99.90;;;;;;5025102;28;20108;-84
2024/01/24 06:59:17;;;;;;;0.52;0.52;;;10.00;99.90;;;;;;4991731;28;20809;-81
2024/01/24 07:01:43;;;;;;;;;;;9.90;99.90;;;;;;5005309;28;20041;-82
2024/01/24 07:04:09;;;;;;;0.50;0.50;;;10.00;99.90;;;;;;5025030;28;19925;-85
2024/01/24 07:06:35;;;;;;;;;;;9.90;99.90;;;;;;5008344;28;20041;-84
2024/01/24 07:09:01;;;;;;;1.52;1.45;;;10.00;99.90;;;;;;5009111;28;19947;-74
2024/01/24 07:11:26;;;;;;;2.25;0.75;;;9.90;99.90;;;;;;5009933;28;20441;-75
2024/01/24 07:13:55;;;;;;;0.82;0.82;;;9.90;99.90;;;;;;5008963;28;20219;-75
2024/01/24 07:16:21;;;;;;;2.70;2.60;;;9.90;99.90;;;;;;4986089;28;20116;-74
2024/01/24 07:18:46;;;;;;;0.40;0.40;;;10.00;99.90;;;;;;4995473;28;20041;-74
2024/01/24 07:21:14;;;;;;;1.10;1.10;;;10.00;99.90;;;;;;5008741;28;20041;-75
2024/01/24 07:23:40;;;;;;;0.45;0.40;;;10.00;99.90;;;;;;4986822;28;20057;-75
2024/01/24 07:26:05;;;;;;;1.40;1.30;;;9.90;99.90;;;;;;4989578;28;20045;-74
2024/01/24 07:28:32;;;;;;;1.75;1.15;;;10.00;99.90;;;;;;4989283;28;20029;-74
2024/01/24 07:30:58;;;;;;;;;;;9.90;99.90;;;;;;4964448;28;20037;-75
2024/01/24 07:33:24;;;;;;;0.85;0.85;;;9.90;99.90;;;;;;4995163;28;19917;-75
2024/01/24 07:35:51;;;;;;;0.40;0.40;;;9.90;99.90;;;;;;4997217;28;20056;-76
2024/01/24 07:38:18;;;;;;;5.57;2.25;;;9.80;99.90;;;;;;4998412;28;20045;-74
2024/01/24 07:40:50;;;;;;;0.40;0.40;;;9.70;99.90;;;;;;4995301;28;20111;-75
2024/01/24 07:43:16;;;;;;;0.40;0.40;;;9.80;99.90;;;;;;5017052;28;20049;-74
2024/01/24 07:45:41;;;;;;;0.47;0.47;;;9.80;99.90;;;;;;4983191;28;20582;-75
2024/01/24 07:48:07;;;;;;;2.10;1.85;;;9.80;99.90;;;;;;4979837;28;20067;-75
2024/01/24 07:50:33;;;;;;;0.50;0.50;;;9.80;99.90;;;;;;5012678;28;20088;-75
2024/01/24 07:53:00;;;;;;;0.85;0.85;;;9.80;99.90;;;;;;5011451;28;20077;-75
2024/01/24 07:55:26;;;;;;;26.75;3.30;;;9.90;99.90;;;;;;4966463;28;20050;-74
2024/01/24 07:57:52;;;;;;;0.73;0.73;;;9.80;99.90;;;;;;5017402;28;20049;-74
2024/01/24 08:00:18;;;;;;;0.57;0.57;;;9.80;99.90;;;;;;4994740;28;20096;-74
2024/01/24 08:02:44;;;;;;;;;;;9.70;99.90;;;;;;5009306;28;20061;-75
2024/01/24 08:05:14;;;;;;;0.73;0.73;;;9.70;99.90;;;;;;5007385;28;19925;-74
2024/01/24 08:07:41;;;;;;;1.75;0.98;;;9.80;99.90;;;;;;5007625;28;20097;-74
2024/01/24 08:10:10;;;;;;;2.45;1.98;;;9.80;99.90;;;;;;5023695;28;20076;-75
2024/01/24 08:12:40;;;;;;;0.85;0.85;;;9.80;99.90;;;;;;5004618;28;20243;-74
2024/01/24 08:15:06;;;;;;;0.68;0.68;;;9.90;99.90;;;;;;5009396;28;20462;-76
2024/01/24 08:17:34;;;;;;;1.38;1.30;;;9.80;99.90;;;;;;5001730;28;20125;-74
2024/01/24 08:20:04;;;;;;;0.47;0.47;;;9.80;99.90;;;;;;4975647;28;20180;-83
2024/01/24 08:22:30;;;;;;;0.75;0.75;;;9.70;99.90;;;;;;5008786;28;20045;-82
2024/01/24 08:24:56;;;;;;;0.40;0.40;;;9.90;99.90;;;;;;4993355;28;20029;-83
2024/01/24 08:27:22;;;;;;;0.55;0.55;;;9.80;99.90;;;;;;4991403;28;20790;-83
2024/01/24 08:29:48;;;;;;;2.85;2.70;;;9.80;99.90;;;;;;5014754;28;20037;-81
2024/01/24 08:32:14;;;;;;;0.47;0.47;;;9.80;99.90;;;;;;4998437;28;20080;-87
2024/01/24 08:34:40;;;;;;;0.40;0.40;;;9.80;99.90;;;;;;5009024;28;20049;-85
2024/01/24 08:37:06;;;;;;;0.50;0.50;;;9.80;99.90;;;;;;4993655;28;20045;-85
2024/01/24 08:39:32;;;;;;;;;;;9.70;99.90;;;;;;4990141;28;20536;-84
2024/01/24 08:41:57;;;;;;;0.43;0.43;;;9.60;99.90;;;;;;5002112;28;19929;-81
2024/01/24 08:44:23;;;;;;;0.82;0.82;;;9.60;99.90;;;;;;4997414;28;20041;-83
2024/01/24 08:46:50;;;;;;;0.40;0.40;;;9.60;99.90;;;;;;4993684;28;20570;-85
2024/01/24 08:49:16;;;;;;;0.40;0.40;;;9.60;99.90;;;;;;4994642;28;20043;-85
2024/01/24 08:51:42;;;;;;;0.73;0.65;;;9.60;99.90;;;;;;5008695;28;20045;-83
2024/01/24 08:54:08;;;;;;;0.82;0.82;;;9.70;99.90;;;;;;5011237;28;20497;-83
2024/01/24 08:56:34;;;;;;;0.50;0.50;;;9.70;99.90;;;;;;5010526;28;20037;-82
2024/01/24 08:59:01;;;;;;;0.80;0.80;;;9.60;99.90;;;;;;5008928;28;20037;-84
2024/01/24 09:01:27;;;;;;;6.15;2.08;;;9.70;99.90;;;;;;4991651;28;20459;-83
2024/01/24 09:03:53;;;;;;;0.30;0.30;;;9.60;99.90;;;;;;5004762;28;20550;-85
2024/01/24 09:06:21;;;;;;;1.05;1.05;;;9.60;99.90;;;;;;4994172;28;20132;-83
2024/01/24 09:08:52;;;;;;;2.05;1.30;;;9.70;99.90;;;;;;5009131;28;20037;-84
2024/01/24 09:11:21;;;;;;;2.45;0.90;;;9.70;99.90;;;;;;5007556;28;20095;-83
2024/01/24 09:13:48;;;;;;;1.27;1.27;;;9.70;99.90;;;;;;4970734;28;20045;-85
2024/01/24 09:16:15;;;;;;;0.43;0.43;;;9.70;99.90;;;;;;4993259;28;20045;-83
2024/01/24 09:18:42;;;;;;;0.52;0.52;;;9.70;99.90;;;;;;4993139;28;20469;-84
2024/01/24 09:21:09;;;;;;;0.60;0.60;;;9.70;99.90;;;;;;5023976;28;20494;-84
2024/01/24 09:23:43;;;;;;;0.40;0.40;;;9.70;99.90;;;;;;5023561;28;20128;-82
2024/01/24 09:26:09;;;;;;;1.10;0.73;;;9.80;99.90;;;;;;5009855;28;20121;-83
2024/01/24 09:28:35;;;;;;;0.40;0.40;;;9.80;99.90;;;;;;4987251;28;20029;-75
2024/01/24 09:31:00;;;;;;;0.88;0.60;;;9.80;99.90;;;;;;5009455;28;20472;-74
2024/01/24 09:33:26;;;;;;;1.38;1.05;;;9.80;99.90;;;;;;5010590;28;20041;-75
2024/01/24 09:35:52;;;;;;;1.70;1.17;;;9.80;99.90;;;;;;4993167;28;20045;-74
2024/01/24 09:38:18;;;;;;;0.47;0.47;;;9.80;99.90;;;;;;4977424;28;20051;-75
2024/01/24 09:40:44;;;;;;;0.85;0.85;;;9.90;99.90;;;;;;4960400;28;20058;-74
2024/01/24 09:43:10;;;;;;;0.40;0.40;;;9.90;99.90;;;;;;4990957;28;20071;-73
2024/01/24 09:45:44;;;;;;;0.40;0.40;;;10.00;99.90;;;;;;4977332;28;20033;-74
2024/01/24 09:48:11;;;;;;;0.98;0.98;;;10.00;99.90;;;;;;4990133;28;20046;-74
2024/01/24 09:50:38;;;;;;;0.43;0.43;;;10.00;99.90;;;;;;4992494;28;20262;-75
2024/01/24 09:53:07;;;;;;;4.13;1.45;;;10.00;99.90;;;;;;5007875;28;20045;-75
2024/01/24 09:55:34;;;;;;;1.77;1.67;;;10.00;99.90;;;;;;5007053;28;20049;-74
2024/01/24 09:58:00;;;;;;;0.70;0.70;;;10.00;99.90;;;;;;5005912;28;20176;-74
2024/01/24 10:00:25;;;;;;;2.53;2.33;;;10.00;99.90;;;;;;5009599;28;20221;-75
2024/01/24 10:02:58;;;;;;;0.57;0.57;;;10.00;99.90;;;;;;4992808;28;20041;-74
2024/01/24 10:05:26;;;;;;;0.88;0.88;;;10.00;99.90;;;;;;5027471;28;20084;-75
2024/01/24 10:07:53;;;;;;;0.60;0.60;;;10.00;99.90;;;;;;5006886;28;20045;-74
2024/01/24 10:10:19;;;;;;;0.98;0.98;;;10.00;99.90;;;;;;5023286;28;20046;-74
2024/01/24 10:12:45;;;;;;;0.65;0.65;;;10.00;99.90;;;;;;4973691;28;20034;-74
2024/01/24 10:15:11;;;;;;;0.50;0.50;;;10.20;99.90;;;;;;5008021;28;20506;-75
2024/01/24 10:17:41;;;;;;;;;;;10.20;99.90;;;;;;5007656;28;20399;-75
2024/01/24 10:20:14;;;;;;;0.55;0.55;;;10.20;99.90;;;;;;5008599;28;19924;-74
2024/01/24 10:22:43;;;;;;;0.60;0.60;;;10.20;99.90;;;;;;4988771;28;20049;-73
2024/01/24 10:25:10;;;;;;;0.30;0.30;;;10.20;99.90;;;;;;4975918;28;20214;-75
2024/01/24 10:27:38;;;;;;;2.25;2.08;;;10.20;99.90;;;;;;5004181;28;20056;-74
2024/01/24 10:30:10;;;;;;;1.60;1.50;;;10.30;99.90;;;;;;4962067;28;20121;-74
2024/01/24 10:32:37;;;;;;;2.08;0.60;;;10.40;99.90;;;;;;4987023;28;20486;-74
2024/01/24 10:35:06;;;;;;;0.40;0.40;;;10.40;99.90;;;;;;4990652;28;20132;-75
2024/01/24 10:37:33;;;;;;;1.65;0.60;;;10.40;99.90;;;;;;4990268;28;20590;-74
2024/01/24 10:40:11;;;;;;;1.13;1.10;;;10.40;99.90;;;;;;4977183;28;20049;-83
2024/01/24 10:42:40;;;;;;;0.45;0.45;;;10.40;99.90;;;;;;5008822;28;20482;-84
2024/01/24 10:45:07;;;;;;;0.43;0.43;;;10.40;99.90;;;;;;5011382;28;20033;-81
2024/01/24 10:47:33;;;;;;;;;;;10.40;99.90;;;;;;5009068;28;20030;-80
2024/01/24 10:50:03;;;;;;;0.60;0.60;;;10.30;99.90;;;;;;5011662;28;19933;-82
2024/01/24 10:52:30;;;;;;;2.00;1.85;;;10.30;99.90;;;;;;5012453;28;20061;-82
2024/01/24 10:55:03;;;;;;;2.50;2.15;;;10.30;99.90;;;;;;5012028;28;20088;-82
2024/01/24 10:57:30;;;;;;;0.40;0.40;;;10.30;99.90;;;;;;5010698;28;20037;-84
2024/01/24 10:59:57;;;;;;;0.50;0.50;;;10.30;99.90;;;;;;5015343;28;20037;-85
2024/01/24 11:02:22;;;;;;;0.40;0.40;;;9.90;99.90;;;;;;4981147;28;20088;-82
2024/01/24 11:04:51;;;;;;;0.47;0.47;;;10.40;99.90;;;;;;5013499;28;20045;-82
2024/01/24 11:07:27;;;;;;;0.65;0.47;;;10.40;99.90;;;;;;5009812;28;20530;-82
2024/01/24 11:10:18;;;;;;;0.77;0.77;;;10.30;99.90;;;;;;4995166;28;20077;-84
2024/01/24 11:12:43;;;;;;;0.40;0.40;;;10.40;99.90;;;;;;5007273;28;20176;-83
2024/01/24 11:15:13;;;;;;;0.50;0.50;;;10.40;99.90;;;;;;4994015;28;20120;-82
2024/01/24 11:17:41;;;;;;;0.47;0.47;;;10.40;99.90;;;;;;5009550;28;20254;-83
2024/01/24 11:20:09;;;;;;;2.05;1.95;;;10.40;99.90;;;;;;5008254;28;20495;-84
2024/01/24 11:22:36;;;;;;;1.80;1.70;;;10.50;99.90;;;;;;5010842;28;20048;-82
2024/01/24 11:25:04;;;;;;;0.50;0.50;;;10.50;99.90;;;;;;5010214;28;20087;-82
2024/01/24 11:27:34;;;;;;;0.57;0.57;;;10.50;99.90;;;;;;4981335;28;20075;-82
2024/01/24 11:30:16;;;;;;;0.50;0.50;;;10.50;99.90;;;;;;5011790;28;20050;-84
2024/01/24 11:32:47;;;;;;;0.65;0.65;;;10.50;99.90;;;;;;4992805;28;20045;-83
2024/01/24 11:35:32;;;;;;;0.30;0.30;;;10.50;99.90;;;;;;4993784;28;20037;-82
2024/01/24 11:38:28;;;;;;;0.57;0.57;;;10.40;99.90;;;;;;5012124;28;20566;-82
2024/01/24 11:40:57;;;;;;;0.63;0.63;;;10.40;99.90;;;;;;5013779;28;20470;-84
2024/01/24 11:43:32;;;;;;;2.25;2.05;;;10.40;99.90;;;;;;4992074;28;20041;-82
2024/01/24 11:46:03;;;;;;;1.52;1.42;;;10.40;99.90;;;;;;5009985;28;20391;-83
2024/01/24 11:48:39;;;;;;;0.60;0.60;;;10.40;99.90;;;;;;5010863;28;20069;-84
2024/01/24 11:51:09;;;;;;;0.40;0.40;;;10.40;99.90;;;;;;5027368;28;20381;-75
2024/01/24 11:53:35;;;;;;;0.43;0.43;;;10.40;99.90;;;;;;5009992;28;20041;-75
2024/01/24 11:56:03;;;;;;;0.52;0.52;;;10.30;99.90;;;;;;4993973;28;20041;-74
2024/01/24 11:58:29;;;;;;;17.25;1.10;;;10.30;99.90;;;;;;4991554;28;20038;-73
2024/01/24 12:00:56;;;;;;;1.35;1.30;;;10.30;99.90;;;;;;4993376;28;20057;-74
2024/01/24 12:03:22;;;;;;;2.88;2.67;;;10.30;99.90;;;;;;5010752;28;20108;-73
2024/01/24 12:05:49;;;;;;;0.30;0.30;;;10.30;99.90;;;;;;4995262;28;20037;-73
2024/01/24 12:08:14;;;;;;;0.57;0.55;;;10.40;99.90;;;;;;4994384;28;20119;-74
2024/01/24 12:10:40;;;;;;;0.38;0.38;;;10.50;99.90;;;;;;5010354;28;20038;-75
2024/01/24 12:13:07;;;;;;;0.75;0.40;;;10.50;99.90;;;;;;5007039;28;20045;-74
2024/01/24 12:15:42;;;;;;;0.88;0.88;;;10.50;99.90;;;;;;5025633;28;20049;-74
2024/01/24 12:18:08;;;;;;;;;;;10.50;99.90;;;;;;4993968;28;20419;-73
2024/01/24 12:20:35;;;;;;;0.65;0.65;;;10.50;99.90;;;;;;5008485;28;19917;-74
2024/01/24 12:23:06;;;;;;;0.40;0.40;;;10.50;99.90;;;;;;5010677;28;20044;-74
2024/01/24 12:25:32;;;;;;;3.33;0.77;;;10.50;99.90;;;;;;5027855;28;20045;-74
2024/01/24 12:27:58;;;;;;;;;;;10.50;99.90;;;;;;4990955;28;20154;-74
2024/01/24 12:30:32;;;;;;;4.38;0.85;;;10.50;99.90;;;;;;5006976;28;19956;-74
2024/01/24 12:33:03;;;;;;;1.40;1.30;;;10.50;99.90;;;;;;4996000;28;20049;-73
2024/01/24 12:35:31;;;;;;;5.03;3.40;;;10.40;99.90;;;;;;4980212;28;20372;-73
2024/01/24 12:38:04;;;;;;;2.30;2.10;;;10.40;99.90;;;;;;4991470;28;20461;-74
2024/01/24 12:40:31;;;;;;;0.40;0.40;;;10.40;99.90;;;;;;4992425;28;20115;-74
2024/01/24 12:42:58;;;;;;;1.63;1.45;;;10.40;99.90;;;;;;5008082;28;20049;-74
2024/01/24 12:45:26;;;;;;;0.65;0.65;;;10.50;99.90;;;;;;4991685;28;20037;-73
2024/01/24 12:47:53;;;;;;;2.47;0.50;;;10.50;99.90;;;;;;4990946;28;20095;-75
2024/01/24 12:50:25;;;;;;;0.65;0.65;;;10.50;99.90;;;;;;4977943;28;20107;-73
2024/01/24 12:52:51;;;;;;;2.83;0.63;;;10.50;99.90;;;;;;4993087;28;20053;-74